sensor_id;sensor_type;location;lat;lon;timestamp;P1;durP1;ratioP1;P2;durP2;ratioP2
28958;SDS011;16066;0.000;0.000;2023-04-06T00:00:58;9.70;;;7.10;;
28958;SDS011;16066;0.000;0.000;2023-04-06T00:03:24;9.60;;;7.53;;
28958;SDS011;16066;0.000;0.000;2023-04-06T00:05:50;9.40;;;7.20;;
28958;SDS011;16066;0.000;0.000;2023-04-06T00:08:15;8.70;;;6.50;;
28958;SDS011;16066;0.000;0.000;2023-04-06T00:10:41;13.80;;;8.80;;
28958;SDS011;16066;0.000;0.000;2023-04-06T00:13:06;9.33;;;7.10;;
28958;SDS011;16066;0.000;0.000;2023-04-06T00:15:32;10.10;;;7.30;;
28958;SDS011;16066;0.000;0.000;2023-04-06T00:17:58;8.93;;;7.53;;
28958;SDS011;16066;0.000;0.000;2023-04-06T00:20:24;13.97;;;8.57;;
28958;SDS011;16066;0.000;0.000;2023-04-06T00:22:50;10.03;;;7.47;;
28958;SDS011;16066;0.000;0.000;2023-04-06T00:25:15;8.90;;;6.60;;
28958;SDS011;16066;0.000;0.000;2023-04-06T00:27:41;10.77;;;7.90;;
28958;SDS011;16066;0.000;0.000;2023-04-06T00:30:07;9.60;;;7.23;;
28958;SDS011;16066;0.000;0.000;2023-04-06T00:32:36;10.17;;;7.27;;
28958;SDS011;16066;0.000;0.000;2023-04-06T00:35:05;11.57;;;7.20;;
28958;SDS011;16066;0.000;0.000;2023-04-06T00:37:31;9.67;;;7.10;;
28958;SDS011;16066;0.000;0.000;2023-04-06T00:39:57;13.90;;;8.40;;
28958;SDS011;16066;0.000;0.000;2023-04-06T00:42:23;12.07;;;7.97;;
28958;SDS011;16066;0.000;0.000;2023-04-06T00:44:55;11.70;;;8.00;;
28958;SDS011;16066;0.000;0.000;2023-04-06T00:47:22;11.30;;;7.93;;
28958;SDS011;16066;0.000;0.000;2023-04-06T00:49:50;10.63;;;7.67;;
28958;SDS011;16066;0.000;0.000;2023-04-06T00:52:16;11.77;;;8.07;;
28958;SDS011;16066;0.000;0.000;2023-04-06T00:54:42;11.00;;;8.50;;
28958;SDS011;16066;0.000;0.000;2023-04-06T00:57:08;11.10;;;8.03;;
28958;SDS011;16066;0.000;0.000;2023-04-06T00:59:33;9.50;;;6.90;;
28958;SDS011;16066;0.000;0.000;2023-04-06T01:01:59;12.37;;;8.37;;
28958;SDS011;16066;0.000;0.000;2023-04-06T01:04:25;11.13;;;7.43;;
28958;SDS011;16066;0.000;0.000;2023-04-06T01:06:51;10.30;;;8.23;;
28958;SDS011;16066;0.000;0.000;2023-04-06T01:09:17;12.07;;;8.20;;
28958;SDS011;16066;0.000;0.000;2023-04-06T01:11:42;13.77;;;8.20;;
28958;SDS011;16066;0.000;0.000;2023-04-06T01:14:08;13.47;;;8.83;;
28958;SDS011;16066;0.000;0.000;2023-04-06T01:16:34;9.27;;;7.53;;
28958;SDS011;16066;0.000;0.000;2023-04-06T01:19:00;11.23;;;8.27;;
28958;SDS011;16066;0.000;0.000;2023-04-06T01:21:26;12.50;;;9.10;;
28958;SDS011;16066;0.000;0.000;2023-04-06T01:23:51;9.83;;;7.77;;
28958;SDS011;16066;0.000;0.000;2023-04-06T01:26:17;13.30;;;8.63;;
28958;SDS011;16066;0.000;0.000;2023-04-06T01:28:42;11.90;;;8.30;;
28958;SDS011;16066;0.000;0.000;2023-04-06T01:31:09;10.30;;;7.90;;
28958;SDS011;16066;0.000;0.000;2023-04-06T01:33:35;12.60;;;8.80;;
28958;SDS011;16066;0.000;0.000;2023-04-06T01:36:01;13.53;;;8.87;;
28958;SDS011;16066;0.000;0.000;2023-04-06T01:38:27;12.60;;;8.50;;
28958;SDS011;16066;0.000;0.000;2023-04-06T01:40:53;12.37;;;9.00;;
28958;SDS011;16066;0.000;0.000;2023-04-06T01:43:19;12.20;;;8.73;;
28958;SDS011;16066;0.000;0.000;2023-04-06T01:45:44;12.27;;;8.80;;
28958;SDS011;16066;0.000;0.000;2023-04-06T01:48:10;12.37;;;9.20;;
28958;SDS011;16066;0.000;0.000;2023-04-06T01:50:35;12.70;;;9.40;;
28958;SDS011;16066;0.000;0.000;2023-04-06T01:53:01;12.43;;;9.00;;
28958;SDS011;16066;0.000;0.000;2023-04-06T01:55:26;12.40;;;9.03;;
28958;SDS011;16066;0.000;0.000;2023-04-06T01:57:52;11.63;;;8.87;;
28958;SDS011;16066;0.000;0.000;2023-04-06T02:00:17;13.17;;;9.67;;
28958;SDS011;16066;0.000;0.000;2023-04-06T02:02:43;15.13;;;10.20;;
28958;SDS011;16066;0.000;0.000;2023-04-06T02:05:09;16.50;;;9.37;;
28958;SDS011;16066;0.000;0.000;2023-04-06T02:07:34;13.50;;;9.60;;
28958;SDS011;16066;0.000;0.000;2023-04-06T02:10:00;12.87;;;10.23;;
28958;SDS011;16066;0.000;0.000;2023-04-06T02:12:25;14.07;;;9.50;;
28958;SDS011;16066;0.000;0.000;2023-04-06T02:14:51;12.97;;;9.20;;
28958;SDS011;16066;0.000;0.000;2023-04-06T02:17:16;14.13;;;10.37;;
28958;SDS011;16066;0.000;0.000;2023-04-06T02:19:42;17.90;;;10.97;;
28958;SDS011;16066;0.000;0.000;2023-04-06T02:22:08;16.47;;;11.23;;
28958;SDS011;16066;0.000;0.000;2023-04-06T02:24:34;14.70;;;10.27;;
28958;SDS011;16066;0.000;0.000;2023-04-06T02:27:00;16.60;;;11.53;;
28958;SDS011;16066;0.000;0.000;2023-04-06T02:29:26;15.17;;;10.90;;
28958;SDS011;16066;0.000;0.000;2023-04-06T02:31:51;16.53;;;11.13;;
28958;SDS011;16066;0.000;0.000;2023-04-06T02:34:17;15.67;;;10.80;;
28958;SDS011;16066;0.000;0.000;2023-04-06T02:36:45;15.47;;;11.13;;
28958;SDS011;16066;0.000;0.000;2023-04-06T02:39:11;15.70;;;10.63;;
28958;SDS011;16066;0.000;0.000;2023-04-06T02:41:38;14.90;;;11.10;;
28958;SDS011;16066;0.000;0.000;2023-04-06T02:44:03;16.83;;;11.40;;
28958;SDS011;16066;0.000;0.000;2023-04-06T02:46:30;14.90;;;11.13;;
28958;SDS011;16066;0.000;0.000;2023-04-06T02:48:56;24.30;;;13.27;;
28958;SDS011;16066;0.000;0.000;2023-04-06T02:51:22;16.70;;;11.60;;
28958;SDS011;16066;0.000;0.000;2023-04-06T02:53:47;18.33;;;13.20;;
28958;SDS011;16066;0.000;0.000;2023-04-06T02:56:13;15.77;;;11.60;;
28958;SDS011;16066;0.000;0.000;2023-04-06T02:58:38;16.67;;;12.20;;
28958;SDS011;16066;0.000;0.000;2023-04-06T03:01:04;17.10;;;11.83;;
28958;SDS011;16066;0.000;0.000;2023-04-06T03:03:29;17.10;;;11.80;;
28958;SDS011;16066;0.000;0.000;2023-04-06T03:05:55;18.20;;;12.10;;
28958;SDS011;16066;0.000;0.000;2023-04-06T03:08:23;18.03;;;12.43;;
28958;SDS011;16066;0.000;0.000;2023-04-06T03:10:49;19.43;;;13.03;;
28958;SDS011;16066;0.000;0.000;2023-04-06T03:13:15;21.10;;;13.07;;
28958;SDS011;16066;0.000;0.000;2023-04-06T03:15:40;17.17;;;12.20;;
28958;SDS011;16066;0.000;0.000;2023-04-06T03:18:06;17.87;;;12.27;;
28958;SDS011;16066;0.000;0.000;2023-04-06T03:20:31;19.20;;;13.10;;
28958;SDS011;16066;0.000;0.000;2023-04-06T03:22:57;16.77;;;11.80;;
28958;SDS011;16066;0.000;0.000;2023-04-06T03:25:23;15.73;;;11.50;;
28958;SDS011;16066;0.000;0.000;2023-04-06T03:27:48;18.90;;;12.77;;
28958;SDS011;16066;0.000;0.000;2023-04-06T03:30:14;20.53;;;13.00;;
28958;SDS011;16066;0.000;0.000;2023-04-06T03:32:42;18.67;;;13.17;;
28958;SDS011;16066;0.000;0.000;2023-04-06T03:35:08;17.73;;;12.10;;
28958;SDS011;16066;0.000;0.000;2023-04-06T03:37:34;20.13;;;13.10;;
28958;SDS011;16066;0.000;0.000;2023-04-06T03:40:00;20.63;;;13.40;;
28958;SDS011;16066;0.000;0.000;2023-04-06T03:42:26;17.07;;;12.10;;
28958;SDS011;16066;0.000;0.000;2023-04-06T03:44:51;16.90;;;12.00;;
28958;SDS011;16066;0.000;0.000;2023-04-06T03:47:17;19.23;;;13.23;;
28958;SDS011;16066;0.000;0.000;2023-04-06T03:49:42;20.47;;;14.13;;
28958;SDS011;16066;0.000;0.000;2023-04-06T03:52:08;18.33;;;13.00;;
28958;SDS011;16066;0.000;0.000;2023-04-06T03:54:33;22.23;;;13.83;;
28958;SDS011;16066;0.000;0.000;2023-04-06T03:56:59;18.33;;;13.20;;
28958;SDS011;16066;0.000;0.000;2023-04-06T03:59:25;18.20;;;12.23;;
28958;SDS011;16066;0.000;0.000;2023-04-06T04:01:50;19.80;;;13.30;;
28958;SDS011;16066;0.000;0.000;2023-04-06T04:04:16;19.80;;;13.70;;
28958;SDS011;16066;0.000;0.000;2023-04-06T04:06:41;19.80;;;13.43;;
28958;SDS011;16066;0.000;0.000;2023-04-06T04:09:07;19.67;;;13.47;;
28958;SDS011;16066;0.000;0.000;2023-04-06T04:11:32;18.63;;;12.20;;
28958;SDS011;16066;0.000;0.000;2023-04-06T04:13:58;19.87;;;12.97;;
28958;SDS011;16066;0.000;0.000;2023-04-06T04:16:23;19.60;;;14.13;;
28958;SDS011;16066;0.000;0.000;2023-04-06T04:18:49;19.23;;;13.00;;
28958;SDS011;16066;0.000;0.000;2023-04-06T04:21:15;19.77;;;13.33;;
28958;SDS011;16066;0.000;0.000;2023-04-06T04:23:40;19.07;;;12.97;;
28958;SDS011;16066;0.000;0.000;2023-04-06T04:26:06;17.17;;;12.93;;
28958;SDS011;16066;0.000;0.000;2023-04-06T04:28:31;19.03;;;13.27;;
28958;SDS011;16066;0.000;0.000;2023-04-06T04:30:57;20.17;;;13.00;;
28958;SDS011;16066;0.000;0.000;2023-04-06T04:33:22;19.87;;;14.37;;
28958;SDS011;16066;0.000;0.000;2023-04-06T04:35:48;19.20;;;13.30;;
28958;SDS011;16066;0.000;0.000;2023-04-06T04:38:14;18.57;;;13.37;;
28958;SDS011;16066;0.000;0.000;2023-04-06T04:40:39;19.80;;;13.70;;
28958;SDS011;16066;0.000;0.000;2023-04-06T04:43:05;20.03;;;13.40;;
28958;SDS011;16066;0.000;0.000;2023-04-06T04:45:30;18.50;;;13.20;;
28958;SDS011;16066;0.000;0.000;2023-04-06T04:47:56;20.73;;;13.97;;
28958;SDS011;16066;0.000;0.000;2023-04-06T04:50:21;19.43;;;13.67;;
28958;SDS011;16066;0.000;0.000;2023-04-06T04:52:47;19.73;;;13.80;;
28958;SDS011;16066;0.000;0.000;2023-04-06T04:55:13;21.47;;;14.60;;
28958;SDS011;16066;0.000;0.000;2023-04-06T04:57:38;19.20;;;14.23;;
28958;SDS011;16066;0.000;0.000;2023-04-06T05:00:04;19.67;;;13.43;;
28958;SDS011;16066;0.000;0.000;2023-04-06T05:02:30;20.60;;;14.30;;
28958;SDS011;16066;0.000;0.000;2023-04-06T05:04:56;20.53;;;14.00;;
28958;SDS011;16066;0.000;0.000;2023-04-06T05:07:21;18.80;;;13.90;;
28958;SDS011;16066;0.000;0.000;2023-04-06T05:09:47;24.20;;;14.30;;
28958;SDS011;16066;0.000;0.000;2023-04-06T05:12:13;24.10;;;14.40;;
28958;SDS011;16066;0.000;0.000;2023-04-06T05:14:38;20.93;;;13.87;;
28958;SDS011;16066;0.000;0.000;2023-04-06T05:17:04;21.23;;;15.27;;
28958;SDS011;16066;0.000;0.000;2023-04-06T05:19:30;21.70;;;14.90;;
28958;SDS011;16066;0.000;0.000;2023-04-06T05:21:56;21.53;;;14.70;;
28958;SDS011;16066;0.000;0.000;2023-04-06T05:24:21;21.60;;;14.63;;
28958;SDS011;16066;0.000;0.000;2023-04-06T05:26:47;24.17;;;15.03;;
28958;SDS011;16066;0.000;0.000;2023-04-06T05:29:13;19.37;;;13.40;;
28958;SDS011;16066;0.000;0.000;2023-04-06T05:31:38;23.27;;;15.70;;
28958;SDS011;16066;0.000;0.000;2023-04-06T05:34:04;21.70;;;15.07;;
28958;SDS011;16066;0.000;0.000;2023-04-06T05:36:29;19.40;;;13.87;;
28958;SDS011;16066;0.000;0.000;2023-04-06T05:38:56;22.07;;;14.47;;
28958;SDS011;16066;0.000;0.000;2023-04-06T05:41:23;22.57;;;16.53;;
28958;SDS011;16066;0.000;0.000;2023-04-06T05:43:49;23.70;;;16.37;;
28958;SDS011;16066;0.000;0.000;2023-04-06T05:46:14;23.93;;;16.53;;
28958;SDS011;16066;0.000;0.000;2023-04-06T05:48:40;28.57;;;16.23;;
28958;SDS011;16066;0.000;0.000;2023-04-06T05:51:05;26.37;;;17.97;;
28958;SDS011;16066;0.000;0.000;2023-04-06T05:53:31;25.00;;;16.33;;
28958;SDS011;16066;0.000;0.000;2023-04-06T05:56:00;22.83;;;16.23;;
28958;SDS011;16066;0.000;0.000;2023-04-06T05:58:26;26.77;;;18.27;;
28958;SDS011;16066;0.000;0.000;2023-04-06T06:00:58;24.67;;;16.33;;
28958;SDS011;16066;0.000;0.000;2023-04-06T06:03:24;28.37;;;17.07;;
28958;SDS011;16066;0.000;0.000;2023-04-06T06:05:50;27.20;;;16.73;;
28958;SDS011;16066;0.000;0.000;2023-04-06T06:08:16;20.03;;;14.17;;
28958;SDS011;16066;0.000;0.000;2023-04-06T06:10:41;20.90;;;14.00;;
28958;SDS011;16066;0.000;0.000;2023-04-06T06:13:07;21.60;;;14.57;;
28958;SDS011;16066;0.000;0.000;2023-04-06T06:15:33;24.70;;;16.07;;
28958;SDS011;16066;0.000;0.000;2023-04-06T06:17:59;28.33;;;16.20;;
28958;SDS011;16066;0.000;0.000;2023-04-06T06:20:25;27.57;;;16.63;;
28958;SDS011;16066;0.000;0.000;2023-04-06T06:22:51;25.00;;;15.60;;
28958;SDS011;16066;0.000;0.000;2023-04-06T06:25:17;29.67;;;16.60;;
28958;SDS011;16066;0.000;0.000;2023-04-06T06:27:42;22.47;;;15.07;;
28958;SDS011;16066;0.000;0.000;2023-04-06T06:30:08;28.63;;;16.17;;
28958;SDS011;16066;0.000;0.000;2023-04-06T06:32:33;23.90;;;15.40;;
28958;SDS011;16066;0.000;0.000;2023-04-06T06:34:59;25.73;;;15.90;;
28958;SDS011;16066;0.000;0.000;2023-04-06T06:37:25;26.53;;;16.43;;
28958;SDS011;16066;0.000;0.000;2023-04-06T06:39:50;23.10;;;14.90;;
28958;SDS011;16066;0.000;0.000;2023-04-06T06:42:16;21.57;;;15.30;;
28958;SDS011;16066;0.000;0.000;2023-04-06T06:44:41;25.30;;;14.57;;
28958;SDS011;16066;0.000;0.000;2023-04-06T06:47:07;23.23;;;13.03;;
28958;SDS011;16066;0.000;0.000;2023-04-06T06:49:32;20.27;;;13.50;;
28958;SDS011;16066;0.000;0.000;2023-04-06T06:51:58;23.27;;;13.50;;
28958;SDS011;16066;0.000;0.000;2023-04-06T06:54:23;20.63;;;13.17;;
28958;SDS011;16066;0.000;0.000;2023-04-06T06:56:49;20.70;;;13.30;;
28958;SDS011;16066;0.000;0.000;2023-04-06T06:59:14;16.97;;;12.53;;
28958;SDS011;16066;0.000;0.000;2023-04-06T07:01:41;19.33;;;12.13;;
28958;SDS011;16066;0.000;0.000;2023-04-06T07:04:07;26.63;;;11.83;;
28958;SDS011;16066;0.000;0.000;2023-04-06T07:06:34;19.77;;;12.53;;
28958;SDS011;16066;0.000;0.000;2023-04-06T07:09:00;25.43;;;13.63;;
28958;SDS011;16066;0.000;0.000;2023-04-06T07:11:28;21.10;;;13.20;;
28958;SDS011;16066;0.000;0.000;2023-04-06T07:13:53;20.77;;;13.37;;
28958;SDS011;16066;0.000;0.000;2023-04-06T07:16:19;18.03;;;12.20;;
28958;SDS011;16066;0.000;0.000;2023-04-06T07:18:45;21.50;;;12.87;;
28958;SDS011;16066;0.000;0.000;2023-04-06T07:21:10;18.53;;;12.00;;
28958;SDS011;16066;0.000;0.000;2023-04-06T07:23:36;20.10;;;11.80;;
28958;SDS011;16066;0.000;0.000;2023-04-06T07:26:02;17.53;;;12.20;;
28958;SDS011;16066;0.000;0.000;2023-04-06T07:28:27;17.83;;;11.30;;
28958;SDS011;16066;0.000;0.000;2023-04-06T07:30:53;15.37;;;11.07;;
28958;SDS011;16066;0.000;0.000;2023-04-06T07:33:19;16.60;;;11.73;;
28958;SDS011;16066;0.000;0.000;2023-04-06T07:35:45;18.43;;;11.57;;
28958;SDS011;16066;0.000;0.000;2023-04-06T07:38:10;19.00;;;10.97;;
28958;SDS011;16066;0.000;0.000;2023-04-06T07:40:36;20.03;;;11.53;;
28958;SDS011;16066;0.000;0.000;2023-04-06T07:43:02;18.90;;;12.80;;
28958;SDS011;16066;0.000;0.000;2023-04-06T07:45:28;14.10;;;10.73;;
28958;SDS011;16066;0.000;0.000;2023-04-06T07:47:53;17.23;;;11.70;;
28958;SDS011;16066;0.000;0.000;2023-04-06T07:50:19;15.73;;;11.00;;
28958;SDS011;16066;0.000;0.000;2023-04-06T07:52:45;14.70;;;11.13;;
28958;SDS011;16066;0.000;0.000;2023-04-06T07:55:10;16.70;;;11.17;;
28958;SDS011;16066;0.000;0.000;2023-04-06T07:57:36;17.63;;;11.83;;
28958;SDS011;16066;0.000;0.000;2023-04-06T08:00:02;18.27;;;12.00;;
28958;SDS011;16066;0.000;0.000;2023-04-06T08:02:29;16.70;;;11.87;;
28958;SDS011;16066;0.000;0.000;2023-04-06T08:04:55;16.87;;;12.50;;
28958;SDS011;16066;0.000;0.000;2023-04-06T08:07:20;20.30;;;11.53;;
28958;SDS011;16066;0.000;0.000;2023-04-06T08:09:46;14.17;;;11.23;;
28958;SDS011;16066;0.000;0.000;2023-04-06T08:12:11;12.60;;;10.03;;
28958;SDS011;16066;0.000;0.000;2023-04-06T08:14:37;14.53;;;10.90;;
28958;SDS011;16066;0.000;0.000;2023-04-06T08:17:02;17.53;;;11.50;;
28958;SDS011;16066;0.000;0.000;2023-04-06T08:19:28;16.30;;;10.90;;
28958;SDS011;16066;0.000;0.000;2023-04-06T08:21:54;20.43;;;11.53;;
28958;SDS011;16066;0.000;0.000;2023-04-06T08:24:19;16.10;;;10.50;;
28958;SDS011;16066;0.000;0.000;2023-04-06T08:26:45;18.40;;;10.60;;
28958;SDS011;16066;0.000;0.000;2023-04-06T08:29:10;12.87;;;9.90;;
28958;SDS011;16066;0.000;0.000;2023-04-06T08:31:36;14.53;;;9.00;;
28958;SDS011;16066;0.000;0.000;2023-04-06T08:34:03;12.90;;;8.90;;
28958;SDS011;16066;0.000;0.000;2023-04-06T08:36:29;13.80;;;9.20;;
28958;SDS011;16066;0.000;0.000;2023-04-06T08:38:54;13.97;;;9.83;;
28958;SDS011;16066;0.000;0.000;2023-04-06T08:41:20;14.87;;;11.17;;
28958;SDS011;16066;0.000;0.000;2023-04-06T08:43:49;20.83;;;14.27;;
28958;SDS011;16066;0.000;0.000;2023-04-06T08:46:25;25.87;;;18.93;;
28958;SDS011;16066;0.000;0.000;2023-04-06T08:48:55;48.17;;;29.83;;
28958;SDS011;16066;0.000;0.000;2023-04-06T08:51:22;61.70;;;39.60;;
28958;SDS011;16066;0.000;0.000;2023-04-06T08:53:51;78.13;;;47.53;;
28958;SDS011;16066;0.000;0.000;2023-04-06T08:56:19;91.23;;;53.60;;
28958;SDS011;16066;0.000;0.000;2023-04-06T08:58:46;96.67;;;58.00;;
28958;SDS011;16066;0.000;0.000;2023-04-06T09:01:12;103.83;;;61.10;;
28958;SDS011;16066;0.000;0.000;2023-04-06T09:03:40;102.53;;;64.60;;
28958;SDS011;16066;0.000;0.000;2023-04-06T09:06:07;115.77;;;63.60;;
28958;SDS011;16066;0.000;0.000;2023-04-06T09:08:33;115.67;;;64.47;;
28958;SDS011;16066;0.000;0.000;2023-04-06T09:11:00;122.47;;;64.77;;
28958;SDS011;16066;0.000;0.000;2023-04-06T09:13:29;111.77;;;64.70;;
28958;SDS011;16066;0.000;0.000;2023-04-06T09:15:59;113.47;;;65.37;;
28958;SDS011;16066;0.000;0.000;2023-04-06T09:18:32;104.20;;;66.35;;
28958;SDS011;16066;0.000;0.000;2023-04-06T09:21:03;113.87;;;65.33;;
28958;SDS011;16066;0.000;0.000;2023-04-06T09:23:30;106.47;;;64.63;;
28958;SDS011;16066;0.000;0.000;2023-04-06T09:28:50;110.67;;;63.70;;
28958;SDS011;16066;0.000;0.000;2023-04-06T09:31:21;108.37;;;63.70;;
28958;SDS011;16066;0.000;0.000;2023-04-06T09:33:48;102.43;;;57.93;;
28958;SDS011;16066;0.000;0.000;2023-04-06T09:36:14;97.97;;;57.10;;
28958;SDS011;16066;0.000;0.000;2023-04-06T09:38:57;100.67;;;55.70;;
28958;SDS011;16066;0.000;0.000;2023-04-06T09:41:26;93.70;;;54.80;;
28958;SDS011;16066;0.000;0.000;2023-04-06T09:44:01;99.47;;;51.30;;
28958;SDS011;16066;0.000;0.000;2023-04-06T09:46:32;94.03;;;52.07;;
28958;SDS011;16066;0.000;0.000;2023-04-06T09:49:02;87.87;;;51.70;;
28958;SDS011;16066;0.000;0.000;2023-04-06T09:51:34;94.67;;;52.53;;
28958;SDS011;16066;0.000;0.000;2023-04-06T09:54:05;79.27;;;47.67;;
28958;SDS011;16066;0.000;0.000;2023-04-06T09:59:21;76.87;;;45.40;;
28958;SDS011;16066;0.000;0.000;2023-04-06T10:01:50;75.33;;;43.67;;
28958;SDS011;16066;0.000;0.000;2023-04-06T10:04:21;79.93;;;45.10;;
28958;SDS011;16066;0.000;0.000;2023-04-06T10:06:55;72.50;;;41.90;;
28958;SDS011;16066;0.000;0.000;2023-04-06T10:09:22;78.47;;;43.60;;
28958;SDS011;16066;0.000;0.000;2023-04-06T10:11:50;66.70;;;41.07;;
28958;SDS011;16066;0.000;0.000;2023-04-06T10:14:16;70.10;;;39.17;;
28958;SDS011;16066;0.000;0.000;2023-04-06T10:16:42;68.80;;;40.10;;
28958;SDS011;16066;0.000;0.000;2023-04-06T10:19:16;59.00;;;34.97;;
28958;SDS011;16066;0.000;0.000;2023-04-06T10:21:45;56.30;;;34.63;;
28958;SDS011;16066;0.000;0.000;2023-04-06T10:24:15;61.10;;;34.37;;
28958;SDS011;16066;0.000;0.000;2023-04-06T10:26:42;51.37;;;32.87;;
28958;SDS011;16066;0.000;0.000;2023-04-06T10:29:07;48.77;;;32.77;;
28958;SDS011;16066;0.000;0.000;2023-04-06T10:31:39;48.30;;;30.93;;
28958;SDS011;16066;0.000;0.000;2023-04-06T10:34:07;46.03;;;28.87;;
28958;SDS011;16066;0.000;0.000;2023-04-06T10:36:33;48.57;;;29.13;;
28958;SDS011;16066;0.000;0.000;2023-04-06T10:39:00;48.33;;;28.20;;
28958;SDS011;16066;0.000;0.000;2023-04-06T10:41:36;42.80;;;26.73;;
28958;SDS011;16066;0.000;0.000;2023-04-06T10:44:30;44.27;;;25.80;;
28958;SDS011;16066;0.000;0.000;2023-04-06T10:46:56;42.03;;;26.10;;
28958;SDS011;16066;0.000;0.000;2023-04-06T10:49:22;44.63;;;26.60;;
28958;SDS011;16066;0.000;0.000;2023-04-06T10:51:53;55.83;;;32.70;;
28958;SDS011;16066;0.000;0.000;2023-04-06T10:54:20;56.83;;;34.57;;
28958;SDS011;16066;0.000;0.000;2023-04-06T10:56:48;66.97;;;39.30;;
28958;SDS011;16066;0.000;0.000;2023-04-06T10:59:18;65.87;;;38.63;;
28958;SDS011;16066;0.000;0.000;2023-04-06T11:01:47;72.70;;;40.23;;
28958;SDS011;16066;0.000;0.000;2023-04-06T11:04:15;65.87;;;40.47;;
28958;SDS011;16066;0.000;0.000;2023-04-06T11:06:41;89.73;;;48.90;;
28958;SDS011;16066;0.000;0.000;2023-04-06T11:09:12;96.33;;;52.90;;
28958;SDS011;16066;0.000;0.000;2023-04-06T11:11:48;111.47;;;57.60;;
28958;SDS011;16066;0.000;0.000;2023-04-06T11:14:14;100.20;;;59.60;;
28958;SDS011;16066;0.000;0.000;2023-04-06T11:16:39;124.30;;;66.77;;
28958;SDS011;16066;0.000;0.000;2023-04-06T11:19:05;112.70;;;63.97;;
28958;SDS011;16066;0.000;0.000;2023-04-06T11:24:12;111.83;;;64.00;;
28958;SDS011;16066;0.000;0.000;2023-04-06T11:26:49;108.47;;;61.53;;
28958;SDS011;16066;0.000;0.000;2023-04-06T11:29:27;108.20;;;57.50;;
28958;SDS011;16066;0.000;0.000;2023-04-06T11:31:58;95.40;;;55.23;;
28958;SDS011;16066;0.000;0.000;2023-04-06T11:34:25;92.50;;;53.77;;
28958;SDS011;16066;0.000;0.000;2023-04-06T11:36:56;87.63;;;50.83;;
28958;SDS011;16066;0.000;0.000;2023-04-06T11:39:24;71.33;;;42.37;;
28958;SDS011;16066;0.000;0.000;2023-04-06T11:41:51;80.43;;;44.67;;
28958;SDS011;16066;0.000;0.000;2023-04-06T11:44:34;65.67;;;39.73;;
28958;SDS011;16066;0.000;0.000;2023-04-06T11:47:03;70.63;;;40.77;;
28958;SDS011;16066;0.000;0.000;2023-04-06T11:49:32;62.47;;;36.07;;
28958;SDS011;16066;0.000;0.000;2023-04-06T11:52:01;58.50;;;37.20;;
28958;SDS011;16066;0.000;0.000;2023-04-06T11:56:59;59.40;;;34.00;;
28958;SDS011;16066;0.000;0.000;2023-04-06T11:59:25;56.17;;;31.60;;
28958;SDS011;16066;0.000;0.000;2023-04-06T12:01:52;49.43;;;28.33;;
28958;SDS011;16066;0.000;0.000;2023-04-06T12:04:18;46.00;;;27.23;;
28958;SDS011;16066;0.000;0.000;2023-04-06T12:06:44;51.23;;;28.03;;
28958;SDS011;16066;0.000;0.000;2023-04-06T12:09:10;42.10;;;25.20;;
28958;SDS011;16066;0.000;0.000;2023-04-06T12:11:35;42.40;;;26.47;;
28958;SDS011;16066;0.000;0.000;2023-04-06T12:14:01;40.73;;;24.50;;
28958;SDS011;16066;0.000;0.000;2023-04-06T12:16:29;42.50;;;25.30;;
28958;SDS011;16066;0.000;0.000;2023-04-06T12:18:58;37.70;;;23.70;;
28958;SDS011;16066;0.000;0.000;2023-04-06T12:21:23;40.63;;;24.70;;
28958;SDS011;16066;0.000;0.000;2023-04-06T12:23:49;37.43;;;22.23;;
28958;SDS011;16066;0.000;0.000;2023-04-06T12:26:14;39.00;;;23.50;;
28958;SDS011;16066;0.000;0.000;2023-04-06T12:28:40;34.43;;;20.83;;
28958;SDS011;16066;0.000;0.000;2023-04-06T12:31:06;33.37;;;20.67;;
28958;SDS011;16066;0.000;0.000;2023-04-06T12:33:31;35.30;;;19.30;;
28958;SDS011;16066;0.000;0.000;2023-04-06T12:35:57;30.50;;;19.60;;
28958;SDS011;16066;0.000;0.000;2023-04-06T12:38:22;30.40;;;18.20;;
28958;SDS011;16066;0.000;0.000;2023-04-06T12:40:48;32.50;;;18.10;;
28958;SDS011;16066;0.000;0.000;2023-04-06T12:43:13;32.03;;;18.33;;
28958;SDS011;16066;0.000;0.000;2023-04-06T12:45:39;28.37;;;16.87;;
28958;SDS011;16066;0.000;0.000;2023-04-06T12:48:05;33.47;;;17.30;;
28958;SDS011;16066;0.000;0.000;2023-04-06T12:50:31;24.40;;;15.07;;
28958;SDS011;16066;0.000;0.000;2023-04-06T12:52:57;24.50;;;14.97;;
28958;SDS011;16066;0.000;0.000;2023-04-06T12:55:22;25.60;;;16.43;;
28958;SDS011;16066;0.000;0.000;2023-04-06T12:57:48;27.47;;;15.30;;
28958;SDS011;16066;0.000;0.000;2023-04-06T13:00:13;23.57;;;14.40;;
28958;SDS011;16066;0.000;0.000;2023-04-06T13:02:39;25.47;;;15.80;;
28958;SDS011;16066;0.000;0.000;2023-04-06T13:05:11;23.83;;;14.20;;
28958;SDS011;16066;0.000;0.000;2023-04-06T13:07:37;22.73;;;14.10;;
28958;SDS011;16066;0.000;0.000;2023-04-06T13:10:03;22.13;;;13.30;;
28958;SDS011;16066;0.000;0.000;2023-04-06T13:12:28;21.23;;;13.57;;
28958;SDS011;16066;0.000;0.000;2023-04-06T13:14:54;24.20;;;14.80;;
28958;SDS011;16066;0.000;0.000;2023-04-06T13:17:20;19.37;;;11.90;;
28958;SDS011;16066;0.000;0.000;2023-04-06T13:19:46;17.90;;;11.13;;
28958;SDS011;16066;0.000;0.000;2023-04-06T13:22:11;15.83;;;11.17;;
28958;SDS011;16066;0.000;0.000;2023-04-06T13:24:37;20.57;;;11.53;;
28958;SDS011;16066;0.000;0.000;2023-04-06T13:27:02;17.83;;;11.00;;
28958;SDS011;16066;0.000;0.000;2023-04-06T13:29:28;15.97;;;10.30;;
28958;SDS011;16066;0.000;0.000;2023-04-06T13:31:53;20.00;;;11.23;;
28958;SDS011;16066;0.000;0.000;2023-04-06T13:34:19;14.27;;;9.50;;
28958;SDS011;16066;0.000;0.000;2023-04-06T13:36:44;18.03;;;10.40;;
28958;SDS011;16066;0.000;0.000;2023-04-06T13:39:10;17.53;;;10.23;;
28958;SDS011;16066;0.000;0.000;2023-04-06T13:41:35;14.33;;;8.97;;
28958;SDS011;16066;0.000;0.000;2023-04-06T13:44:01;12.77;;;8.93;;
28958;SDS011;16066;0.000;0.000;2023-04-06T13:46:27;11.90;;;8.47;;
28958;SDS011;16066;0.000;0.000;2023-04-06T13:48:52;12.77;;;8.07;;
28958;SDS011;16066;0.000;0.000;2023-04-06T13:51:18;13.23;;;8.13;;
28958;SDS011;16066;0.000;0.000;2023-04-06T13:53:43;16.33;;;8.50;;
28958;SDS011;16066;0.000;0.000;2023-04-06T13:56:09;12.40;;;7.60;;
28958;SDS011;16066;0.000;0.000;2023-04-06T13:58:35;11.30;;;7.40;;
28958;SDS011;16066;0.000;0.000;2023-04-06T14:01:10;11.37;;;7.37;;
28958;SDS011;16066;0.000;0.000;2023-04-06T14:03:35;9.90;;;6.40;;
28958;SDS011;16066;0.000;0.000;2023-04-06T14:06:08;11.50;;;6.90;;
28958;SDS011;16066;0.000;0.000;2023-04-06T14:08:35;11.07;;;6.70;;
28958;SDS011;16066;0.000;0.000;2023-04-06T14:11:00;12.13;;;7.13;;
28958;SDS011;16066;0.000;0.000;2023-04-06T14:13:26;9.13;;;6.40;;
28958;SDS011;16066;0.000;0.000;2023-04-06T14:15:52;10.47;;;6.50;;
28958;SDS011;16066;0.000;0.000;2023-04-06T14:18:19;10.10;;;6.10;;
28958;SDS011;16066;0.000;0.000;2023-04-06T14:20:44;13.13;;;6.57;;
28958;SDS011;16066;0.000;0.000;2023-04-06T14:23:10;9.30;;;6.23;;
28958;SDS011;16066;0.000;0.000;2023-04-06T14:25:36;8.03;;;5.77;;
28958;SDS011;16066;0.000;0.000;2023-04-06T14:28:01;8.43;;;5.77;;
28958;SDS011;16066;0.000;0.000;2023-04-06T14:30:27;9.70;;;5.97;;
28958;SDS011;16066;0.000;0.000;2023-04-06T14:32:52;8.90;;;5.43;;
28958;SDS011;16066;0.000;0.000;2023-04-06T14:35:22;7.83;;;5.73;;
28958;SDS011;16066;0.000;0.000;2023-04-06T14:37:47;7.20;;;5.77;;
28958;SDS011;16066;0.000;0.000;2023-04-06T14:40:13;8.53;;;5.20;;
28958;SDS011;16066;0.000;0.000;2023-04-06T14:42:38;8.10;;;5.67;;
28958;SDS011;16066;0.000;0.000;2023-04-06T14:45:04;9.60;;;5.20;;